sensor_id;sensor_type;location;lat;lon;timestamp;P1;durP1;ratioP1;P2;durP2;ratioP2
13485;SDS011;6815;59.336;17.998;2022-08-18T00:01:38;23.02;;;18.55;;
13485;SDS011;6815;59.336;17.998;2022-08-18T00:04:05;19.63;;;17.73;;
13485;SDS011;6815;59.336;17.998;2022-08-18T00:06:32;20.25;;;17.70;;
13485;SDS011;6815;59.336;17.998;2022-08-18T00:08:59;19.17;;;17.15;;
13485;SDS011;6815;59.336;17.998;2022-08-18T00:11:28;20.25;;;17.30;;
13485;SDS011;6815;59.336;17.998;2022-08-18T00:13:56;18.13;;;16.33;;
13485;SDS011;6815;59.336;17.998;2022-08-18T00:16:21;18.73;;;16.27;;
13485;SDS011;6815;59.336;17.998;2022-08-18T00:18:48;17.42;;;15.40;;
13485;SDS011;6815;59.336;17.998;2022-08-18T00:21:13;17.65;;;15.85;;
13485;SDS011;6815;59.336;17.998;2022-08-18T00:23:39;17.80;;;16.00;;
13485;SDS011;6815;59.336;17.998;2022-08-18T00:26:04;17.25;;;15.55;;
13485;SDS011;6815;59.336;17.998;2022-08-18T00:28:30;17.05;;;15.35;;
13485;SDS011;6815;59.336;17.998;2022-08-18T00:30:55;15.63;;;13.95;;
13485;SDS011;6815;59.336;17.998;2022-08-18T00:33:21;15.45;;;13.95;;
13485;SDS011;6815;59.336;17.998;2022-08-18T00:35:47;17.30;;;15.63;;
13485;SDS011;6815;59.336;17.998;2022-08-18T00:38:13;18.45;;;16.08;;
13485;SDS011;6815;59.336;17.998;2022-08-18T00:40:43;16.52;;;15.05;;
13485;SDS011;6815;59.336;17.998;2022-08-18T00:43:18;17.13;;;15.52;;
13485;SDS011;6815;59.336;17.998;2022-08-18T00:45:56;17.38;;;15.73;;
13485;SDS011;6815;59.336;17.998;2022-08-18T00:48:22;17.17;;;14.95;;
13485;SDS011;6815;59.336;17.998;2022-08-18T00:50:57;16.63;;;15.13;;
13485;SDS011;6815;59.336;17.998;2022-08-18T00:55:54;18.13;;;16.42;;
13485;SDS011;6815;59.336;17.998;2022-08-18T00:58:30;17.75;;;15.52;;
13485;SDS011;6815;59.336;17.998;2022-08-18T01:01:03;17.70;;;15.90;;
13485;SDS011;6815;59.336;17.998;2022-08-18T01:03:31;19.20;;;16.92;;
13485;SDS011;6815;59.336;17.998;2022-08-18T01:06:02;18.58;;;16.77;;
13485;SDS011;6815;59.336;17.998;2022-08-18T01:08:41;19.15;;;17.02;;
13485;SDS011;6815;59.336;17.998;2022-08-18T01:11:07;18.80;;;16.92;;
13485;SDS011;6815;59.336;17.998;2022-08-18T01:13:34;18.40;;;16.70;;
13485;SDS011;6815;59.336;17.998;2022-08-18T01:16:02;18.52;;;16.67;;
13485;SDS011;6815;59.336;17.998;2022-08-18T01:18:48;19.60;;;17.15;;
13485;SDS011;6815;59.336;17.998;2022-08-18T01:21:35;17.80;;;16.10;;
13485;SDS011;6815;59.336;17.998;2022-08-18T01:24:14;18.55;;;16.65;;
13485;SDS011;6815;59.336;17.998;2022-08-18T01:26:41;19.67;;;17.65;;
13485;SDS011;6815;59.336;17.998;2022-08-18T01:29:13;18.60;;;16.77;;
13485;SDS011;6815;59.336;17.998;2022-08-18T01:31:41;20.25;;;18.35;;
13485;SDS011;6815;59.336;17.998;2022-08-18T01:34:11;19.63;;;17.42;;
13485;SDS011;6815;59.336;17.998;2022-08-18T01:36:37;19.10;;;17.17;;
13485;SDS011;6815;59.336;17.998;2022-08-18T01:39:06;21.67;;;18.25;;
13485;SDS011;6815;59.336;17.998;2022-08-18T01:41:34;20.10;;;18.30;;
13485;SDS011;6815;59.336;17.998;2022-08-18T01:44:00;20.05;;;17.95;;
13485;SDS011;6815;59.336;17.998;2022-08-18T01:46:27;19.73;;;17.25;;
13485;SDS011;6815;59.336;17.998;2022-08-18T01:48:55;19.55;;;17.63;;
13485;SDS011;6815;59.336;17.998;2022-08-18T01:51:25;20.17;;;18.10;;
13485;SDS011;6815;59.336;17.998;2022-08-18T01:53:54;19.50;;;17.40;;
13485;SDS011;6815;59.336;17.998;2022-08-18T01:56:20;20.05;;;18.05;;
13485;SDS011;6815;59.336;17.998;2022-08-18T01:58:45;21.60;;;19.40;;
13485;SDS011;6815;59.336;17.998;2022-08-18T02:01:12;19.88;;;18.02;;
13485;SDS011;6815;59.336;17.998;2022-08-18T02:03:40;21.08;;;18.95;;
13485;SDS011;6815;59.336;17.998;2022-08-18T02:06:10;21.80;;;19.52;;
13485;SDS011;6815;59.336;17.998;2022-08-18T02:08:37;22.63;;;18.77;;
13485;SDS011;6815;59.336;17.998;2022-08-18T02:11:04;21.02;;;18.92;;
13485;SDS011;6815;59.336;17.998;2022-08-18T02:13:31;21.92;;;19.83;;
13485;SDS011;6815;59.336;17.998;2022-08-18T02:15:57;25.05;;;20.08;;
13485;SDS011;6815;59.336;17.998;2022-08-18T02:18:24;20.80;;;18.83;;
13485;SDS011;6815;59.336;17.998;2022-08-18T02:20:55;20.75;;;18.85;;
13485;SDS011;6815;59.336;17.998;2022-08-18T02:23:21;22.40;;;20.15;;
13485;SDS011;6815;59.336;17.998;2022-08-18T02:25:48;21.52;;;19.30;;
13485;SDS011;6815;59.336;17.998;2022-08-18T02:28:14;22.70;;;20.38;;
13485;SDS011;6815;59.336;17.998;2022-08-18T02:30:39;23.17;;;20.88;;
13485;SDS011;6815;59.336;17.998;2022-08-18T02:33:06;22.63;;;20.33;;
13485;SDS011;6815;59.336;17.998;2022-08-18T02:35:33;23.80;;;20.15;;
13485;SDS011;6815;59.336;17.998;2022-08-18T02:37:59;22.73;;;20.33;;
13485;SDS011;6815;59.336;17.998;2022-08-18T02:40:28;21.85;;;19.73;;
13485;SDS011;6815;59.336;17.998;2022-08-18T02:42:54;21.70;;;19.58;;
13485;SDS011;6815;59.336;17.998;2022-08-18T02:45:20;21.92;;;19.67;;
13485;SDS011;6815;59.336;17.998;2022-08-18T02:47:51;23.08;;;20.73;;
13485;SDS011;6815;59.336;17.998;2022-08-18T02:50:17;22.45;;;20.05;;
13485;SDS011;6815;59.336;17.998;2022-08-18T02:52:43;23.20;;;20.83;;
13485;SDS011;6815;59.336;17.998;2022-08-18T02:55:09;20.55;;;18.45;;
13485;SDS011;6815;59.336;17.998;2022-08-18T02:57:34;21.65;;;19.42;;
13485;SDS011;6815;59.336;17.998;2022-08-18T03:00:00;21.35;;;19.25;;
13485;SDS011;6815;59.336;17.998;2022-08-18T03:02:26;22.40;;;20.30;;
13485;SDS011;6815;59.336;17.998;2022-08-18T03:04:51;22.45;;;20.25;;
13485;SDS011;6815;59.336;17.998;2022-08-18T03:07:17;22.98;;;20.67;;
13485;SDS011;6815;59.336;17.998;2022-08-18T03:09:42;22.23;;;20.02;;
13485;SDS011;6815;59.336;17.998;2022-08-18T03:12:08;21.90;;;19.73;;
13485;SDS011;6815;59.336;17.998;2022-08-18T03:14:34;21.10;;;19.05;;
13485;SDS011;6815;59.336;17.998;2022-08-18T03:17:02;22.00;;;19.80;;
13485;SDS011;6815;59.336;17.998;2022-08-18T03:19:30;22.20;;;19.63;;
13485;SDS011;6815;59.336;17.998;2022-08-18T03:21:56;23.10;;;20.90;;
13485;SDS011;6815;59.336;17.998;2022-08-18T03:24:23;24.58;;;20.88;;
13485;SDS011;6815;59.336;17.998;2022-08-18T03:26:50;23.10;;;20.08;;
13485;SDS011;6815;59.336;17.998;2022-08-18T03:29:16;24.02;;;20.63;;
13485;SDS011;6815;59.336;17.998;2022-08-18T03:31:42;22.05;;;19.85;;
13485;SDS011;6815;59.336;17.998;2022-08-18T03:34:08;22.15;;;20.05;;
13485;SDS011;6815;59.336;17.998;2022-08-18T03:36:36;21.73;;;19.60;;
13485;SDS011;6815;59.336;17.998;2022-08-18T03:39:05;22.55;;;20.33;;
13485;SDS011;6815;59.336;17.998;2022-08-18T03:41:37;22.60;;;20.20;;
13485;SDS011;6815;59.336;17.998;2022-08-18T03:44:06;22.25;;;20.02;;
13485;SDS011;6815;59.336;17.998;2022-08-18T03:46:31;22.88;;;20.55;;
13485;SDS011;6815;59.336;17.998;2022-08-18T03:48:58;22.73;;;20.45;;
13485;SDS011;6815;59.336;17.998;2022-08-18T03:51:27;22.55;;;19.95;;
13485;SDS011;6815;59.336;17.998;2022-08-18T03:53:56;22.52;;;20.23;;
13485;SDS011;6815;59.336;17.998;2022-08-18T03:56:25;21.63;;;19.45;;
13485;SDS011;6815;59.336;17.998;2022-08-18T03:58:59;20.67;;;18.65;;
13485;SDS011;6815;59.336;17.998;2022-08-18T04:01:28;21.85;;;19.60;;
13485;SDS011;6815;59.336;17.998;2022-08-18T04:03:58;21.10;;;18.95;;
13485;SDS011;6815;59.336;17.998;2022-08-18T04:06:38;21.65;;;19.63;;
13485;SDS011;6815;59.336;17.998;2022-08-18T04:09:07;21.88;;;19.55;;
13485;SDS011;6815;59.336;17.998;2022-08-18T04:11:36;21.58;;;19.48;;
13485;SDS011;6815;59.336;17.998;2022-08-18T04:14:02;21.63;;;19.52;;
13485;SDS011;6815;59.336;17.998;2022-08-18T04:16:29;22.17;;;20.00;;
13485;SDS011;6815;59.336;17.998;2022-08-18T04:19:02;21.83;;;19.23;;
13485;SDS011;6815;59.336;17.998;2022-08-18T04:21:34;21.75;;;19.65;;
13485;SDS011;6815;59.336;17.998;2022-08-18T04:24:02;21.48;;;19.33;;
13485;SDS011;6815;59.336;17.998;2022-08-18T04:26:34;22.00;;;19.80;;
13485;SDS011;6815;59.336;17.998;2022-08-18T04:29:01;20.48;;;18.58;;
13485;SDS011;6815;59.336;17.998;2022-08-18T04:31:27;22.30;;;19.27;;
13485;SDS011;6815;59.336;17.998;2022-08-18T04:33:54;20.88;;;18.75;;
13485;SDS011;6815;59.336;17.998;2022-08-18T04:36:20;20.05;;;17.83;;
13485;SDS011;6815;59.336;17.998;2022-08-18T04:38:46;20.88;;;18.92;;
13485;SDS011;6815;59.336;17.998;2022-08-18T04:41:12;20.05;;;18.02;;
13485;SDS011;6815;59.336;17.998;2022-08-18T04:43:38;19.27;;;17.30;;
13485;SDS011;6815;59.336;17.998;2022-08-18T04:46:04;23.38;;;17.20;;
13485;SDS011;6815;59.336;17.998;2022-08-18T04:48:34;16.70;;;15.05;;
13485;SDS011;6815;59.336;17.998;2022-08-18T04:51:09;15.23;;;13.73;;
13485;SDS011;6815;59.336;17.998;2022-08-18T04:53:37;15.23;;;13.70;;
13485;SDS011;6815;59.336;17.998;2022-08-18T04:58:43;13.25;;;12.05;;
13485;SDS011;6815;59.336;17.998;2022-08-18T05:01:09;12.75;;;11.55;;
13485;SDS011;6815;59.336;17.998;2022-08-18T05:03:34;13.70;;;11.65;;
13485;SDS011;6815;59.336;17.998;2022-08-18T05:06:02;12.75;;;11.45;;
13485;SDS011;6815;59.336;17.998;2022-08-18T05:08:28;12.52;;;11.23;;
13485;SDS011;6815;59.336;17.998;2022-08-18T05:10:56;12.32;;;11.13;;
13485;SDS011;6815;59.336;17.998;2022-08-18T05:13:22;12.65;;;10.57;;
13485;SDS011;6815;59.336;17.998;2022-08-18T05:15:55;11.95;;;10.85;;
13485;SDS011;6815;59.336;17.998;2022-08-18T05:18:22;11.52;;;10.50;;
13485;SDS011;6815;59.336;17.998;2022-08-18T05:20:52;11.65;;;10.50;;
13485;SDS011;6815;59.336;17.998;2022-08-18T05:23:19;11.25;;;10.15;;
13485;SDS011;6815;59.336;17.998;2022-08-18T05:25:46;10.88;;;9.85;;
13485;SDS011;6815;59.336;17.998;2022-08-18T05:28:12;11.88;;;10.80;;
13485;SDS011;6815;59.336;17.998;2022-08-18T05:30:38;11.40;;;10.30;;
13485;SDS011;6815;59.336;17.998;2022-08-18T05:33:05;12.40;;;10.20;;
13485;SDS011;6815;59.336;17.998;2022-08-18T05:35:45;12.10;;;10.07;;
13485;SDS011;6815;59.336;17.998;2022-08-18T05:38:29;11.85;;;10.27;;
13485;SDS011;6815;59.336;17.998;2022-08-18T05:41:05;11.73;;;10.60;;
13485;SDS011;6815;59.336;17.998;2022-08-18T05:43:46;11.15;;;10.18;;
13485;SDS011;6815;59.336;17.998;2022-08-18T05:46:14;11.70;;;10.52;;
13485;SDS011;6815;59.336;17.998;2022-08-18T05:48:40;11.60;;;10.40;;
13485;SDS011;6815;59.336;17.998;2022-08-18T05:51:17;13.10;;;10.13;;
13485;SDS011;6815;59.336;17.998;2022-08-18T05:53:55;10.95;;;9.95;;
13485;SDS011;6815;59.336;17.998;2022-08-18T05:56:39;10.80;;;9.70;;
13485;SDS011;6815;59.336;17.998;2022-08-18T05:59:21;11.13;;;10.02;;
13485;SDS011;6815;59.336;17.998;2022-08-18T06:01:52;11.23;;;10.10;;
13485;SDS011;6815;59.336;17.998;2022-08-18T06:04:36;10.32;;;9.35;;
13485;SDS011;6815;59.336;17.998;2022-08-18T06:07:15;12.02;;;10.90;;
13485;SDS011;6815;59.336;17.998;2022-08-18T06:09:49;11.57;;;10.35;;
13485;SDS011;6815;59.336;17.998;2022-08-18T06:14:48;12.80;;;10.57;;
13485;SDS011;6815;59.336;17.998;2022-08-18T06:17:31;11.60;;;10.50;;
13485;SDS011;6815;59.336;17.998;2022-08-18T06:20:08;11.35;;;10.30;;
13485;SDS011;6815;59.336;17.998;2022-08-18T06:25:36;11.18;;;9.63;;
13485;SDS011;6815;59.336;17.998;2022-08-18T06:28:21;10.77;;;9.68;;
13485;SDS011;6815;59.336;17.998;2022-08-18T06:30:58;11.15;;;10.07;;
13485;SDS011;6815;59.336;17.998;2022-08-18T06:36:36;11.15;;;10.15;;
13485;SDS011;6815;59.336;17.998;2022-08-18T06:39:12;11.23;;;10.13;;
13485;SDS011;6815;59.336;17.998;2022-08-18T06:41:59;11.75;;;10.48;;
13485;SDS011;6815;59.336;17.998;2022-08-18T06:44:30;11.60;;;10.40;;
13485;SDS011;6815;59.336;17.998;2022-08-18T06:47:13;10.93;;;9.82;;
13485;SDS011;6815;59.336;17.998;2022-08-18T06:49:50;11.70;;;10.60;;
13485;SDS011;6815;59.336;17.998;2022-08-18T06:52:29;10.73;;;9.65;;
13485;SDS011;6815;59.336;17.998;2022-08-18T06:55:05;10.80;;;9.80;;
13485;SDS011;6815;59.336;17.998;2022-08-18T06:57:38;10.63;;;9.63;;
13485;SDS011;6815;59.336;17.998;2022-08-18T07:05:54;10.40;;;9.27;;
13485;SDS011;6815;59.336;17.998;2022-08-18T07:13:52;11.02;;;9.13;;
13485;SDS011;6815;59.336;17.998;2022-08-18T07:19:05;10.52;;;9.43;;
13485;SDS011;6815;59.336;17.998;2022-08-18T07:21:39;10.35;;;9.35;;
13485;SDS011;6815;59.336;17.998;2022-08-18T07:27:20;10.43;;;9.32;;
13485;SDS011;6815;59.336;17.998;2022-08-18T07:29:31;9.85;;;8.85;;
13485;SDS011;6815;59.336;17.998;2022-08-18T07:34:47;10.15;;;9.20;;
13485;SDS011;6815;59.336;17.998;2022-08-18T07:37:19;8.48;;;7.57;;
13485;SDS011;6815;59.336;17.998;2022-08-18T07:40:03;9.15;;;8.05;;
13485;SDS011;6815;59.336;17.998;2022-08-18T07:43:00;8.93;;;8.13;;
13485;SDS011;6815;59.336;17.998;2022-08-18T07:45:40;8.93;;;7.90;;
13485;SDS011;6815;59.336;17.998;2022-08-18T07:56:06;7.60;;;6.97;;
13485;SDS011;6815;59.336;17.998;2022-08-18T07:58:43;8.57;;;7.00;;
13485;SDS011;6815;59.336;17.998;2022-08-18T08:01:22;7.50;;;6.90;;
13485;SDS011;6815;59.336;17.998;2022-08-18T08:04:16;9.75;;;7.85;;
13485;SDS011;6815;59.336;17.998;2022-08-18T08:06:51;8.68;;;7.80;;
13485;SDS011;6815;59.336;17.998;2022-08-18T08:12:41;8.63;;;7.32;;
13485;SDS011;6815;59.336;17.998;2022-08-18T08:15:13;9.27;;;8.02;;
13485;SDS011;6815;59.336;17.998;2022-08-18T08:23:08;8.13;;;7.40;;
13485;SDS011;6815;59.336;17.998;2022-08-18T08:30:54;8.02;;;7.22;;
13485;SDS011;6815;59.336;17.998;2022-08-18T08:33:44;8.15;;;7.35;;
13485;SDS011;6815;59.336;17.998;2022-08-18T08:36:22;7.93;;;7.22;;
13485;SDS011;6815;59.336;17.998;2022-08-18T08:39:33;8.35;;;7.03;;
13485;SDS011;6815;59.336;17.998;2022-08-18T08:41:44;7.85;;;7.18;;
13485;SDS011;6815;59.336;17.998;2022-08-18T08:44:20;7.22;;;6.63;;
13485;SDS011;6815;59.336;17.998;2022-08-18T08:47:04;8.18;;;7.38;;
13485;SDS011;6815;59.336;17.998;2022-08-18T08:49:51;7.50;;;6.80;;
13485;SDS011;6815;59.336;17.998;2022-08-18T08:54:49;7.22;;;6.55;;
13485;SDS011;6815;59.336;17.998;2022-08-18T08:57:18;6.10;;;5.60;;
13485;SDS011;6815;59.336;17.998;2022-08-18T08:59:51;6.15;;;5.65;;
13485;SDS011;6815;59.336;17.998;2022-08-18T09:21:36;7.55;;;6.00;;
13485;SDS011;6815;59.336;17.998;2022-08-18T09:32:29;7.95;;;7.15;;
13485;SDS011;6815;59.336;17.998;2022-08-18T09:43:33;8.10;;;7.38;;
13485;SDS011;6815;59.336;17.998;2022-08-18T09:46:04;10.38;;;7.72;;
13485;SDS011;6815;59.336;17.998;2022-08-18T09:48:35;8.65;;;7.78;;
13485;SDS011;6815;59.336;17.998;2022-08-18T09:56:15;7.82;;;7.13;;
13485;SDS011;6815;59.336;17.998;2022-08-18T09:59:01;9.05;;;8.18;;
13485;SDS011;6815;59.336;17.998;2022-08-18T10:06:38;9.25;;;8.43;;
13485;SDS011;6815;59.336;17.998;2022-08-18T10:11:45;10.80;;;8.80;;
13485;SDS011;6815;59.336;17.998;2022-08-18T10:14:35;9.15;;;8.27;;
13485;SDS011;6815;59.336;17.998;2022-08-18T10:17:42;10.70;;;8.27;;
13485;SDS011;6815;59.336;17.998;2022-08-18T10:22:56;8.88;;;8.10;;
13485;SDS011;6815;59.336;17.998;2022-08-18T10:25:36;9.52;;;8.60;;
13485;SDS011;6815;59.336;17.998;2022-08-18T10:28:10;9.35;;;8.38;;
13485;SDS011;6815;59.336;17.998;2022-08-18T10:31:00;8.77;;;7.97;;
13485;SDS011;6815;59.336;17.998;2022-08-18T10:39:22;8.80;;;8.00;;
13485;SDS011;6815;59.336;17.998;2022-08-18T10:41:55;9.68;;;8.68;;
13485;SDS011;6815;59.336;17.998;2022-08-18T10:44:24;9.02;;;8.30;;
13485;SDS011;6815;59.336;17.998;2022-08-18T10:46:51;9.00;;;8.15;;
13485;SDS011;6815;59.336;17.998;2022-08-18T10:49:21;8.82;;;8.07;;
13485;SDS011;6815;59.336;17.998;2022-08-18T10:52:08;11.95;;;8.25;;
13485;SDS011;6815;59.336;17.998;2022-08-18T10:54:43;9.30;;;8.40;;
13485;SDS011;6815;59.336;17.998;2022-08-18T10:57:31;11.85;;;8.70;;
13485;SDS011;6815;59.336;17.998;2022-08-18T11:00:18;9.23;;;8.13;;
13485;SDS011;6815;59.336;17.998;2022-08-18T11:05:30;8.88;;;7.93;;
13485;SDS011;6815;59.336;17.998;2022-08-18T11:08:15;8.68;;;7.82;;
13485;SDS011;6815;59.336;17.998;2022-08-18T11:10:45;9.15;;;8.25;;
13485;SDS011;6815;59.336;17.998;2022-08-18T11:17:11;8.32;;;7.63;;
13485;SDS011;6815;59.336;17.998;2022-08-18T11:19:17;7.97;;;7.38;;
13485;SDS011;6815;59.336;17.998;2022-08-18T11:21:45;9.07;;;8.18;;
13485;SDS011;6815;59.336;17.998;2022-08-18T11:24:14;8.40;;;7.60;;
13485;SDS011;6815;59.336;17.998;2022-08-18T11:26:58;8.65;;;7.72;;
13485;SDS011;6815;59.336;17.998;2022-08-18T11:29:33;8.75;;;7.90;;
13485;SDS011;6815;59.336;17.998;2022-08-18T11:32:07;8.15;;;7.35;;
13485;SDS011;6815;59.336;17.998;2022-08-18T11:37:09;8.18;;;7.35;;
13485;SDS011;6815;59.336;17.998;2022-08-18T11:39:49;8.25;;;7.45;;
13485;SDS011;6815;59.336;17.998;2022-08-18T11:42:17;8.50;;;7.80;;
13485;SDS011;6815;59.336;17.998;2022-08-18T11:44:50;8.77;;;8.00;;
13485;SDS011;6815;59.336;17.998;2022-08-18T11:47:19;9.52;;;7.85;;
13485;SDS011;6815;59.336;17.998;2022-08-18T11:49:55;8.45;;;7.72;;
13485;SDS011;6815;59.336;17.998;2022-08-18T11:52:48;8.95;;;8.05;;
13485;SDS011;6815;59.336;17.998;2022-08-18T11:55:20;10.27;;;9.27;;
13485;SDS011;6815;59.336;17.998;2022-08-18T11:57:54;9.82;;;9.02;;
13485;SDS011;6815;59.336;17.998;2022-08-18T12:01:03;12.25;;;9.07;;
13485;SDS011;6815;59.336;17.998;2022-08-18T12:05:46;10.70;;;9.25;;
13485;SDS011;6815;59.336;17.998;2022-08-18T12:08:34;10.63;;;9.50;;
13485;SDS011;6815;59.336;17.998;2022-08-18T12:11:04;11.02;;;9.93;;
13485;SDS011;6815;59.336;17.998;2022-08-18T12:13:40;10.45;;;9.45;;
13485;SDS011;6815;59.336;17.998;2022-08-18T12:16:15;10.07;;;9.18;;
13485;SDS011;6815;59.336;17.998;2022-08-18T12:18:57;10.13;;;9.07;;
13485;SDS011;6815;59.336;17.998;2022-08-18T12:21:23;11.07;;;10.02;;
13485;SDS011;6815;59.336;17.998;2022-08-18T12:23:48;10.63;;;9.63;;
13485;SDS011;6815;59.336;17.998;2022-08-18T12:26:14;10.10;;;9.30;;
13485;SDS011;6815;59.336;17.998;2022-08-18T12:28:40;10.63;;;9.60;;
13485;SDS011;6815;59.336;17.998;2022-08-18T12:31:06;10.48;;;9.57;;
13485;SDS011;6815;59.336;17.998;2022-08-18T12:33:33;10.65;;;9.65;;
13485;SDS011;6815;59.336;17.998;2022-08-18T12:35:59;10.68;;;9.40;;
13485;SDS011;6815;59.336;17.998;2022-08-18T12:38:26;11.20;;;9.50;;
13485;SDS011;6815;59.336;17.998;2022-08-18T12:40:52;10.98;;;9.93;;
13485;SDS011;6815;59.336;17.998;2022-08-18T12:43:18;11.18;;;10.18;;
13485;SDS011;6815;59.336;17.998;2022-08-18T12:45:43;11.15;;;10.05;;
13485;SDS011;6815;59.336;17.998;2022-08-18T12:48:10;10.27;;;9.38;;
13485;SDS011;6815;59.336;17.998;2022-08-18T12:50:36;11.07;;;10.07;;
13485;SDS011;6815;59.336;17.998;2022-08-18T12:53:03;10.93;;;9.80;;
13485;SDS011;6815;59.336;17.998;2022-08-18T12:55:30;10.10;;;9.20;;
13485;SDS011;6815;59.336;17.998;2022-08-18T12:58:03;10.40;;;9.40;;
13485;SDS011;6815;59.336;17.998;2022-08-18T13:00:29;11.65;;;10.50;;
13485;SDS011;6815;59.336;17.998;2022-08-18T13:02:55;10.93;;;9.80;;
13485;SDS011;6815;59.336;17.998;2022-08-18T13:05:21;11.30;;;10.20;;
13485;SDS011;6815;59.336;17.998;2022-08-18T13:07:48;11.70;;;10.00;;
13485;SDS011;6815;59.336;17.998;2022-08-18T13:10:14;11.57;;;10.38;;
13485;SDS011;6815;59.336;17.998;2022-08-18T13:12:41;10.50;;;9.57;;
13485;SDS011;6815;59.336;17.998;2022-08-18T13:15:07;10.82;;;9.48;;
13485;SDS011;6815;59.336;17.998;2022-08-18T13:17:35;10.40;;;9.35;;
13485;SDS011;6815;59.336;17.998;2022-08-18T13:20:05;15.07;;;10.10;;
13485;SDS011;6815;59.336;17.998;2022-08-18T13:22:33;10.55;;;9.60;;
13485;SDS011;6815;59.336;17.998;2022-08-18T13:25:00;10.70;;;9.80;;
13485;SDS011;6815;59.336;17.998;2022-08-18T13:27:29;10.70;;;9.70;;
13485;SDS011;6815;59.336;17.998;2022-08-18T13:29:55;10.80;;;9.80;;
13485;SDS011;6815;59.336;17.998;2022-08-18T13:32:21;10.15;;;9.25;;
13485;SDS011;6815;59.336;17.998;2022-08-18T13:34:46;11.13;;;10.02;;
13485;SDS011;6815;59.336;17.998;2022-08-18T13:37:11;12.02;;;10.93;;
13485;SDS011;6815;59.336;17.998;2022-08-18T13:39:39;10.93;;;9.80;;
13485;SDS011;6815;59.336;17.998;2022-08-18T13:42:04;10.95;;;10.05;;
13485;SDS011;6815;59.336;17.998;2022-08-18T13:44:30;11.23;;;10.10;;
13485;SDS011;6815;59.336;17.998;2022-08-18T13:46:56;9.82;;;9.02;;
13485;SDS011;6815;59.336;17.998;2022-08-18T13:49:22;11.02;;;9.95;;
13485;SDS011;6815;59.336;17.998;2022-08-18T13:51:49;10.63;;;9.60;;
13485;SDS011;6815;59.336;17.998;2022-08-18T13:54:24;11.32;;;10.23;;
13485;SDS011;6815;59.336;17.998;2022-08-18T13:56:51;12.10;;;11.00;;
13485;SDS011;6815;59.336;17.998;2022-08-18T13:59:17;11.63;;;10.40;;
13485;SDS011;6815;59.336;17.998;2022-08-18T14:01:45;11.73;;;10.35;;
13485;SDS011;6815;59.336;17.998;2022-08-18T14:04:11;12.25;;;11.18;;
13485;SDS011;6815;59.336;17.998;2022-08-18T14:06:37;12.70;;;11.40;;
13485;SDS011;6815;59.336;17.998;2022-08-18T14:09:03;12.68;;;11.32;;
13485;SDS011;6815;59.336;17.998;2022-08-18T14:11:30;12.68;;;11.52;;
13485;SDS011;6815;59.336;17.998;2022-08-18T14:13:58;12.32;;;11.15;;
13485;SDS011;6815;59.336;17.998;2022-08-18T14:16:24;13.18;;;11.95;;
13485;SDS011;6815;59.336;17.998;2022-08-18T14:18:49;12.48;;;11.32;;
13485;SDS011;6815;59.336;17.998;2022-08-18T14:21:35;12.00;;;10.88;;
13485;SDS011;6815;59.336;17.998;2022-08-18T14:24:29;11.95;;;10.82;;
13485;SDS011;6815;59.336;17.998;2022-08-18T14:27:15;12.63;;;11.40;;
13485;SDS011;6815;59.336;17.998;2022-08-18T14:29:42;11.88;;;10.68;;
13485;SDS011;6815;59.336;17.998;2022-08-18T14:32:07;12.40;;;11.20;;
13485;SDS011;6815;59.336;17.998;2022-08-18T14:34:34;12.35;;;11.18;;
13485;SDS011;6815;59.336;17.998;2022-08-18T14:36:59;13.00;;;11.82;;
13485;SDS011;6815;59.336;17.998;2022-08-18T14:39:25;12.30;;;11.30;;
13485;SDS011;6815;59.336;17.998;2022-08-18T14:41:52;12.43;;;11.35;;
13485;SDS011;6815;59.336;17.998;2022-08-18T14:44:17;13.50;;;12.23;;
13485;SDS011;6815;59.336;17.998;2022-08-18T14:46:43;12.65;;;11.40;;
13485;SDS011;6815;59.336;17.998;2022-08-18T14:49:11;12.38;;;11.13;;
13485;SDS011;6815;59.336;17.998;2022-08-18T14:51:37;12.13;;;10.90;;
13485;SDS011;6815;59.336;17.998;2022-08-18T14:54:10;12.88;;;11.73;;
13485;SDS011;6815;59.336;17.998;2022-08-18T14:56:35;12.88;;;11.57;;
13485;SDS011;6815;59.336;17.998;2022-08-18T14:59:01;13.73;;;12.30;;
13485;SDS011;6815;59.336;17.998;2022-08-18T15:01:29;13.63;;;12.23;;
13485;SDS011;6815;59.336;17.998;2022-08-18T15:03:55;12.82;;;11.73;;
13485;SDS011;6815;59.336;17.998;2022-08-18T15:06:21;13.13;;;11.88;;
13485;SDS011;6815;59.336;17.998;2022-08-18T15:08:46;13.50;;;12.23;;
13485;SDS011;6815;59.336;17.998;2022-08-18T15:11:11;13.23;;;11.82;;
13485;SDS011;6815;59.336;17.998;2022-08-18T15:13:38;13.02;;;11.73;;
13485;SDS011;6815;59.336;17.998;2022-08-18T15:16:05;12.80;;;11.68;;
13485;SDS011;6815;59.336;17.998;2022-08-18T15:18:44;13.95;;;12.57;;
13485;SDS011;6815;59.336;17.998;2022-08-18T15:21:10;12.90;;;11.70;;
13485;SDS011;6815;59.336;17.998;2022-08-18T15:24:00;13.52;;;12.23;;
13485;SDS011;6815;59.336;17.998;2022-08-18T15:26:43;14.32;;;12.90;;
13485;SDS011;6815;59.336;17.998;2022-08-18T15:29:10;12.98;;;11.77;;
13485;SDS011;6815;59.336;17.998;2022-08-18T15:31:37;13.50;;;12.20;;
13485;SDS011;6815;59.336;17.998;2022-08-18T15:34:03;13.55;;;12.10;;
13485;SDS011;6815;59.336;17.998;2022-08-18T15:36:30;12.55;;;11.25;;
13485;SDS011;6815;59.336;17.998;2022-08-18T15:38:57;13.07;;;11.77;;
13485;SDS011;6815;59.336;17.998;2022-08-18T15:41:31;13.52;;;12.27;;
13485;SDS011;6815;59.336;17.998;2022-08-18T15:43:56;13.63;;;12.43;;
13485;SDS011;6815;59.336;17.998;2022-08-18T15:46:22;12.98;;;11.68;;
13485;SDS011;6815;59.336;17.998;2022-08-18T15:48:49;13.30;;;11.93;;
13485;SDS011;6815;59.336;17.998;2022-08-18T15:51:15;15.32;;;12.75;;
13485;SDS011;6815;59.336;17.998;2022-08-18T15:53:41;13.05;;;11.85;;
13485;SDS011;6815;59.336;17.998;2022-08-18T15:56:11;14.82;;;12.63;;
13485;SDS011;6815;59.336;17.998;2022-08-18T15:58:38;13.82;;;12.40;;
13485;SDS011;6815;59.336;17.998;2022-08-18T16:01:07;13.30;;;12.05;;
13485;SDS011;6815;59.336;17.998;2022-08-18T16:03:34;15.32;;;13.82;;
13485;SDS011;6815;59.336;17.998;2022-08-18T16:06:00;14.88;;;13.30;;
13485;SDS011;6815;59.336;17.998;2022-08-18T16:08:26;13.63;;;12.35;;
13485;SDS011;6815;59.336;17.998;2022-08-18T16:10:52;14.30;;;12.90;;
13485;SDS011;6815;59.336;17.998;2022-08-18T16:13:19;14.02;;;12.63;;
13485;SDS011;6815;59.336;17.998;2022-08-18T16:15:46;13.75;;;12.38;;
13485;SDS011;6815;59.336;17.998;2022-08-18T16:18:18;14.27;;;12.77;;
13485;SDS011;6815;59.336;17.998;2022-08-18T16:20:47;14.32;;;12.90;;
13485;SDS011;6815;59.336;17.998;2022-08-18T16:23:13;14.10;;;12.60;;
13485;SDS011;6815;59.336;17.998;2022-08-18T16:25:41;14.60;;;13.15;;
13485;SDS011;6815;59.336;17.998;2022-08-18T16:28:08;15.35;;;13.32;;
13485;SDS011;6815;59.336;17.998;2022-08-18T16:30:34;15.07;;;13.68;;
13485;SDS011;6815;59.336;17.998;2022-08-18T16:33:01;15.98;;;13.20;;
13485;SDS011;6815;59.336;17.998;2022-08-18T16:35:28;17.77;;;14.18;;
13485;SDS011;6815;59.336;17.998;2022-08-18T16:37:54;16.20;;;13.60;;
13485;SDS011;6815;59.336;17.998;2022-08-18T16:40:20;15.18;;;13.60;;
13485;SDS011;6815;59.336;17.998;2022-08-18T16:42:52;15.57;;;13.68;;
13485;SDS011;6815;59.336;17.998;2022-08-18T16:45:18;18.35;;;14.43;;
13485;SDS011;6815;59.336;17.998;2022-08-18T16:47:43;17.90;;;16.20;;
13485;SDS011;6815;59.336;17.998;2022-08-18T16:50:10;19.00;;;16.10;;
13485;SDS011;6815;59.336;17.998;2022-08-18T16:52:39;16.80;;;14.98;;
13485;SDS011;6815;59.336;17.998;2022-08-18T16:55:06;16.48;;;14.88;;